Oakland County International Airport
KPTK : now visible

Airfield :











YOU CAN JOIN US ON...

 
LOGIN :

Register | Disclaimer

   EN    FR    IT 

 









Legend :    VFR   Marginal VFR   IFR   Intensive IFR   Very Intensive IFR
Visi :
Ceiling :
>= 8 km
>= 3000ft
5 to 8 km
1000 to 3000 ft
1500m to 5 km
500 to 1000 ft
800 to 1500m
200 to 500 ft
< 800m
< 200 ft
Symbols :   Thunderstorms  Fog  Heavy snow  Heavy precipitations  Wind > 20 kt






- Airport Elevation : 980 ft


KPTK - Oakland County International

CURRENT METAR :
  • 291653Z 33009KT 10SM FEW013 OVC044 16/12 A2988 RMK AO2 RAE05 SLP116 P0000 T01560122

EXPIRED METARs :
  • 291606Z 34010G22KT 10SM FEW014 SCT023 OVC036 16/13 A2987 RMK AO2 RAE05 P0000 T01610128
  • 291553Z 35011G22KT 10SM -RA FEW012 BKN025 OVC034 16/13 A2987 RMK AO2 PK WND 35030/1454 LTG DSNT E SLP110 P0000 T01560128
  • 291536Z 33013G24KT 10SM -RA FEW012 BKN021 OVC041 16/13 A2987 RMK AO2 PK WND 35030/1454 LTG DSNT E AND SE P0000 T01560133
  • 291516Z 35013G23KT 10SM -RA SCT011 BKN032 OVC044 16/14 A2986 RMK AO2 PK WND 35030/1454 SCT V BKN P0000 T01610139
  • 291453Z 34018G26KT 6SM -RA BR SCT014 BKN029 OVC044 16/15 A2985 RMK AO2 PK WND 28036/1426 WSHFT 1425 RAB27 SLP102 P0004 60004 T01610150 53004

TAF KPTK
Valid from the 29 at 18:00 until the 30 at 18:00 UTC


291729Z 2918/3018 28010KT P6SM SCT050 BKN250
FM300100 32013KT P6SM BKN040
FM301500 32012G18KT P6SM BKN050
KZOB FIR / North America



MET'MAP, your aeronautical weather chart ! - Copyright ORBIFLY December 2007 - Disclaimer

ORBIFLY MET'MAP TEAM :

Programming & Development : Alexandra Zaïnal
Concept & original design : Baudouin d'Aumeries
Assistance for programming : Marc-Olivier Méhu
Technical & hardware support : Manuel Goepfert

Contact : metmap@orbifly.com




SOURCES & CREDITS :

   NOAA       Earth
Advisory